createdAt,value
2023-03-17T00:01:25.146Z,98697.16
2023-03-17T00:03:53.356Z,98699.66
2023-03-17T00:06:28.594Z,98693.69
2023-03-17T00:08:57.587Z,98691.19
2023-03-17T00:11:27.724Z,98698.84
2023-03-17T00:13:57.640Z,98685.81
2023-03-17T00:16:28.178Z,98700.50
2023-03-17T00:18:58.197Z,98698.63
2023-03-17T00:21:29.232Z,98695.53
2023-03-17T00:23:57.665Z,98699.44
2023-03-17T00:26:26.615Z,98700.28
2023-03-17T00:28:56.534Z,98694.09
2023-03-17T00:31:27.755Z,98701.75
2023-03-17T00:33:56.626Z,98695.94
2023-03-17T00:36:28.081Z,98701.72
2023-03-17T00:38:56.405Z,98696.53
2023-03-17T00:41:24.674Z,98688.31
2023-03-17T00:43:52.711Z,98697.16
2023-03-17T00:46:26.805Z,98703.56
2023-03-17T00:48:55.248Z,98700.69
2023-03-17T00:51:24.217Z,98702.50
2023-03-17T00:53:52.878Z,98692.53
2023-03-17T00:56:22.464Z,98701.88
2023-03-17T00:58:50.542Z,98704.56
2023-03-17T01:01:20.027Z,98709.34
2023-03-17T01:03:49.387Z,98707.47
2023-03-17T01:06:18.200Z,98705.22
2023-03-17T01:08:46.590Z,98697.78
2023-03-17T01:11:18.914Z,98716.78
2023-03-17T01:13:47.039Z,98701.91
2023-03-17T01:16:15.753Z,98710.19
2023-03-17T01:18:44.358Z,98711.81
2023-03-17T01:21:14.044Z,98700.88
2023-03-17T01:23:42.301Z,98712.84
2023-03-17T01:26:10.526Z,98713.22
2023-03-17T01:28:38.497Z,98707.69
2023-03-17T01:31:06.573Z,98699.41
2023-03-17T01:33:35.231Z,98699.53
2023-03-17T01:36:03.366Z,98701.47
2023-03-17T01:38:32.790Z,98704.84
2023-03-17T01:41:03.515Z,98709.22
2023-03-17T01:43:32.597Z,98710.88
2023-03-17T01:46:21.922Z,98707.38
2023-03-17T01:48:58.103Z,98706.91
2023-03-17T01:51:32.441Z,98699.47
2023-03-17T01:54:04.905Z,98700.72
2023-03-17T01:56:33.199Z,98710.88
2023-03-17T01:59:04.142Z,98711.28
2023-03-17T02:01:38.944Z,98705.69
2023-03-17T02:04:07.532Z,98698.50
2023-03-17T02:06:42.121Z,98703.25
2023-03-17T02:09:17.338Z,98710.06
2023-03-17T02:11:45.834Z,98706.72
2023-03-17T02:14:13.818Z,98711.69
2023-03-17T02:16:42.018Z,98698.13
2023-03-17T02:19:10.030Z,98699.16
2023-03-17T02:21:44.028Z,98694.22
2023-03-17T02:24:20.632Z,98677.94
2023-03-17T02:26:50.668Z,98686.59
2023-03-17T02:29:21.497Z,98683.94
2023-03-17T02:31:49.728Z,98685.84
2023-03-17T02:34:17.954Z,98690.69
2023-03-17T02:36:47.697Z,98687.25
2023-03-17T02:39:15.731Z,98688.38
2023-03-17T02:41:43.706Z,98671.09
2023-03-17T02:44:12.077Z,98680.00
2023-03-17T02:46:40.051Z,98700.50
2023-03-17T02:49:08.640Z,98690.97
2023-03-17T02:51:36.773Z,98695.84
2023-03-17T02:54:06.153Z,98687.38
2023-03-17T02:56:34.146Z,98692.94
2023-03-17T02:59:02.100Z,98689.34
2023-03-17T03:01:31.020Z,98685.91
2023-03-17T03:03:59.435Z,98688.25
2023-03-17T03:06:27.831Z,98682.69
2023-03-17T03:08:55.824Z,98674.78
2023-03-17T03:11:25.479Z,98668.16
2023-03-17T03:13:53.521Z,98668.25
2023-03-17T03:16:21.750Z,98651.16
2023-03-17T03:18:49.900Z,98653.06
2023-03-17T03:21:17.940Z,98642.34
2023-03-17T03:23:45.943Z,98640.59
2023-03-17T03:26:13.944Z,98645.59
2023-03-17T03:28:43.456Z,98644.84
2023-03-17T03:31:11.754Z,98662.03
2023-03-17T03:33:39.728Z,98664.38
2023-03-17T03:36:08.912Z,98667.19
2023-03-17T03:38:36.929Z,98671.34
2023-03-17T03:41:05.035Z,98676.06
2023-03-17T03:43:32.976Z,98665.66
2023-03-17T03:46:02.568Z,98656.31
2023-03-17T03:48:30.513Z,98658.88
2023-03-17T03:50:59.242Z,98640.50
2023-03-17T03:53:27.963Z,98633.75
2023-03-17T03:55:56.527Z,98641.19
2023-03-17T03:58:24.531Z,98654.88
2023-03-17T04:00:52.449Z,98685.09
2023-03-17T04:03:21.846Z,98695.81
2023-03-17T04:05:49.863Z,98706.66
2023-03-17T04:08:17.789Z,98710.66
2023-03-17T04:10:45.773Z,98704.88
2023-03-17T04:13:14.202Z,98707.47
2023-03-17T04:15:42.562Z,98716.16
2023-03-17T04:18:10.604Z,98727.56
2023-03-17T04:20:39.919Z,98719.56
2023-03-17T04:23:08.063Z,98716.69
2023-03-17T04:25:36.833Z,98729.41
2023-03-17T04:28:05.175Z,98725.66
2023-03-17T04:30:33.377Z,98735.97
2023-03-17T04:33:01.432Z,98741.09
2023-03-17T04:35:29.407Z,98734.53
2023-03-17T04:37:58.936Z,98732.66
2023-03-17T04:40:27.486Z,98738.09
2023-03-17T04:42:55.529Z,98744.06
2023-03-17T04:45:23.509Z,98748.22
2023-03-17T04:47:51.636Z,98756.88
2023-03-17T04:50:19.667Z,98767.88
2023-03-17T04:52:47.616Z,98767.06
2023-03-17T04:55:17.156Z,98760.22
2023-03-17T04:57:45.205Z,98751.63
2023-03-17T05:00:15.615Z,98761.06
2023-03-17T05:02:44.241Z,98768.97
2023-03-17T05:05:12.282Z,98755.81
2023-03-17T05:07:40.281Z,98764.25
2023-03-17T05:10:09.493Z,98777.88
2023-03-17T05:12:38.969Z,98783.06
2023-03-17T05:15:08.213Z,98782.91
2023-03-17T05:17:36.359Z,98794.13
2023-03-17T05:20:04.475Z,98784.38
2023-03-17T05:22:32.436Z,98779.72
2023-03-17T05:25:00.336Z,98787.81
2023-03-17T05:27:28.332Z,98796.81
2023-03-17T05:29:57.768Z,98812.88
2023-03-17T05:32:25.907Z,98823.53
2023-03-17T05:34:54.462Z,98833.13
2023-03-17T05:37:22.743Z,98839.22
2023-03-17T05:39:51.112Z,98847.56
2023-03-17T05:42:19.048Z,98847.53
2023-03-17T05:44:47.040Z,98869.31
2023-03-17T05:47:16.388Z,98857.91
2023-03-17T05:49:44.335Z,98859.34
2023-03-17T05:52:12.290Z,98861.53
2023-03-17T05:54:40.666Z,98873.69
2023-03-17T05:57:08.868Z,98870.25
2023-03-17T05:59:37.111Z,98859.38
2023-03-17T06:02:05.153Z,98859.28
2023-03-17T06:04:34.474Z,98870.72
2023-03-17T06:07:02.484Z,98869.19
2023-03-17T06:09:30.693Z,98865.94
2023-03-17T06:11:58.846Z,98872.38
2023-03-17T06:14:27.337Z,98876.88
2023-03-17T06:16:55.590Z,98879.44
2023-03-17T06:19:23.560Z,98884.81
2023-03-17T06:21:53.122Z,98884.75
2023-03-17T06:24:21.155Z,98890.88
2023-03-17T06:26:49.171Z,98890.94
2023-03-17T06:29:17.181Z,98891.81
2023-03-17T06:31:50.539Z,98897.44
2023-03-17T06:34:18.738Z,98898.06
2023-03-17T06:36:46.961Z,98900.38
2023-03-17T06:39:18.183Z,98904.59
2023-03-17T06:41:46.194Z,98906.06
2023-03-17T06:44:14.266Z,98915.19
2023-03-17T06:46:42.546Z,98918.31
2023-03-17T06:49:13.430Z,98925.25
2023-03-17T06:51:42.096Z,98924.72
2023-03-17T06:54:10.341Z,98922.16
2023-03-17T06:56:39.760Z,98926.50
2023-03-17T06:59:07.692Z,98932.75
2023-03-17T07:01:35.726Z,98935.09
2023-03-17T07:04:03.833Z,98941.44
2023-03-17T07:06:31.889Z,98948.44
2023-03-17T07:09:02.082Z,98950.38
2023-03-17T07:11:30.878Z,98945.28
2023-03-17T07:14:00.588Z,98953.38
2023-03-17T07:16:29.001Z,98959.19
2023-03-17T07:18:57.052Z,98963.09
2023-03-17T07:21:25.078Z,98961.63
2023-03-17T07:23:53.017Z,98956.84
2023-03-17T07:26:21.010Z,98952.81
2023-03-17T07:28:49.167Z,98949.22
2023-03-17T07:31:19.827Z,98958.41
2023-03-17T07:33:47.938Z,98960.56
2023-03-17T07:36:15.992Z,98961.41
2023-03-17T07:38:44.504Z,98960.50
2023-03-17T07:41:12.521Z,98960.75
2023-03-17T07:43:40.609Z,98969.63
2023-03-17T07:46:08.714Z,98972.56
2023-03-17T07:48:42.132Z,98978.50
2023-03-17T07:51:14.670Z,98987.91
2023-03-17T07:53:42.830Z,98991.03
2023-03-17T07:56:11.145Z,98994.84
2023-03-17T07:58:40.277Z,98981.69
2023-03-17T08:01:09.922Z,98982.88
2023-03-17T08:03:41.335Z,98989.84
2023-03-17T08:06:09.968Z,98984.78
2023-03-17T08:08:38.271Z,98985.03
2023-03-17T08:11:07.803Z,98982.84
2023-03-17T08:13:36.096Z,98988.59
2023-03-17T08:16:04.085Z,98966.81
2023-03-17T08:18:32.167Z,98977.25
2023-03-17T08:21:02.122Z,98981.06
2023-03-17T08:23:33.598Z,98991.47
2023-03-17T08:26:03.154Z,98990.25
2023-03-17T08:28:32.620Z,98997.66
2023-03-17T08:31:12.224Z,98990.19
2023-03-17T08:33:42.400Z,99013.44
2023-03-17T08:36:12.852Z,99014.00
2023-03-17T08:38:42.695Z,99009.34
2023-03-17T08:41:13.616Z,98997.59
2023-03-17T08:43:42.716Z,98999.31
2023-03-17T08:46:15.874Z,98995.50
2023-03-17T08:48:45.175Z,99013.94
2023-03-17T08:51:17.056Z,99005.84
2023-03-17T08:53:46.999Z,98999.75
2023-03-17T08:56:16.985Z,98995.78
2023-03-17T08:58:46.063Z,98984.66
2023-03-17T09:01:14.604Z,98980.22
2023-03-17T09:03:43.005Z,98973.66
2023-03-17T09:06:13.594Z,98970.34
2023-03-17T09:08:47.446Z,98961.69
2023-03-17T09:11:17.833Z,98961.91
2023-03-17T09:13:47.517Z,98972.88
2023-03-17T09:16:16.265Z,98995.97
2023-03-17T09:18:44.762Z,99002.16
2023-03-17T09:21:13.818Z,99004.22
2023-03-17T09:23:43.544Z,99015.78
2023-03-17T09:26:12.631Z,99023.59
2023-03-17T09:28:40.662Z,99028.81
2023-03-17T09:31:11.686Z,99027.59
2023-03-17T09:33:39.845Z,99016.69
2023-03-17T09:36:08.783Z,99014.72
2023-03-17T09:38:37.437Z,99007.00
2023-03-17T09:41:37.302Z,99012.47
2023-03-17T09:44:13.514Z,99010.56
2023-03-17T09:46:51.066Z,99011.50
2023-03-17T09:49:21.300Z,98999.50
2023-03-17T09:51:50.818Z,98998.91
2023-03-17T09:54:25.752Z,98993.41
2023-03-17T09:57:01.814Z,98994.97
2023-03-17T09:59:33.453Z,98998.44
2023-03-17T10:02:01.853Z,99004.59
2023-03-17T10:04:29.888Z,99001.03
2023-03-17T10:07:03.992Z,98993.47
2023-03-17T10:09:37.462Z,98997.69
2023-03-17T10:12:11.553Z,98998.44
2023-03-17T10:14:51.401Z,99015.34
2023-03-17T10:17:22.137Z,99010.56
2023-03-17T10:19:59.831Z,99003.22
2023-03-17T10:22:32.190Z,99002.56
2023-03-17T10:25:06.666Z,98999.63
2023-03-17T10:27:39.384Z,99015.31
2023-03-17T10:30:16.147Z,99023.81
2023-03-17T10:32:45.622Z,99026.53
2023-03-17T10:35:15.051Z,99030.97
2023-03-17T10:37:44.204Z,99044.31
2023-03-17T10:40:22.557Z,99044.53
2023-03-17T10:42:56.475Z,99027.59
2023-03-17T10:45:29.421Z,99024.97
2023-03-17T10:47:59.295Z,99034.09
2023-03-17T10:50:30.545Z,99036.97
2023-03-17T10:53:00.747Z,99026.63
2023-03-17T10:55:32.767Z,99032.72
2023-03-17T10:58:07.035Z,99025.91
2023-03-17T11:00:38.716Z,99023.81
2023-03-17T11:03:14.592Z,99030.66
2023-03-17T11:05:55.182Z,99035.38
2023-03-17T11:08:23.274Z,99033.25
2023-03-17T11:10:57.066Z,99031.22
2023-03-17T11:13:30.482Z,99028.53
2023-03-17T11:16:22.853Z,99022.31
2023-03-17T11:18:54.750Z,99026.88
2023-03-17T11:21:27.900Z,99020.97
2023-03-17T11:24:07.037Z,99017.28
2023-03-17T11:26:49.557Z,99009.47
2023-03-17T11:29:30.775Z,99009.78
2023-03-17T11:32:05.595Z,99000.97
2023-03-17T11:34:52.121Z,99005.19
2023-03-17T11:37:32.687Z,99001.66
2023-03-17T11:40:07.830Z,99004.09
2023-03-17T11:42:44.472Z,99014.06
2023-03-17T11:45:24.576Z,99011.53
2023-03-17T11:48:17.370Z,99008.13
2023-03-17T11:50:53.376Z,99002.56
2023-03-17T11:53:38.686Z,99011.97
2023-03-17T11:56:14.164Z,99003.09
2023-03-17T11:58:46.095Z,98998.34
2023-03-17T12:01:19.416Z,99002.84
2023-03-17T12:03:51.728Z,99000.59
2023-03-17T12:06:27.245Z,99004.00
2023-03-17T12:09:00.968Z,99003.53
2023-03-17T12:11:30.722Z,99003.94
2023-03-17T12:14:03.534Z,99000.50
2023-03-17T12:16:39.322Z,98996.03
2023-03-17T12:19:14.812Z,99002.38
2023-03-17T12:21:50.326Z,98992.25
2023-03-17T12:24:21.555Z,98993.28
2023-03-17T12:26:55.842Z,98979.50
2023-03-17T12:29:31.476Z,98980.00
2023-03-17T12:32:06.809Z,98967.38
2023-03-17T12:34:39.798Z,98971.72
2023-03-17T12:37:09.059Z,98983.78
2023-03-17T12:39:40.626Z,98980.84
2023-03-17T12:42:23.853Z,98981.97
2023-03-17T12:45:09.305Z,98974.97
2023-03-17T12:47:50.119Z,98973.03
2023-03-17T12:50:48.092Z,98971.97
2023-03-17T12:53:31.020Z,98959.31
2023-03-17T12:56:02.650Z,98953.72
2023-03-17T12:58:36.611Z,98963.94
2023-03-17T13:01:17.593Z,98940.69
2023-03-17T13:04:05.614Z,98946.00
2023-03-17T13:06:41.031Z,98951.28
2023-03-17T13:09:31.624Z,98950.25
2023-03-17T13:12:00.446Z,98956.59
2023-03-17T13:14:41.860Z,98947.50
2023-03-17T13:17:35.029Z,98934.47
2023-03-17T13:20:37.046Z,98932.78
2023-03-17T13:23:14.318Z,98937.06
2023-03-17T13:25:53.569Z,98947.84
2023-03-17T13:28:27.159Z,98943.22
2023-03-17T13:31:10.222Z,98951.38
2023-03-17T13:33:44.591Z,98947.31
2023-03-17T13:36:37.068Z,98944.00
2023-03-17T13:39:46.644Z,98957.94
2023-03-17T13:42:24.786Z,98958.22
2023-03-17T13:45:13.227Z,98950.97
2023-03-17T13:47:43.035Z,98946.47
2023-03-17T13:50:15.868Z,98958.50
2023-03-17T13:52:50.452Z,98963.81
2023-03-17T13:55:38.161Z,98960.03
2023-03-17T13:58:25.684Z,98967.69
2023-03-17T14:01:01.251Z,98950.59
2023-03-17T14:03:37.838Z,98950.47
2023-03-17T14:06:08.394Z,98936.03
2023-03-17T14:08:39.791Z,98927.00
2023-03-17T14:11:18.335Z,98932.38
2023-03-17T14:13:53.692Z,98927.63
2023-03-17T14:16:26.967Z,98928.84
2023-03-17T14:19:00.233Z,98921.47
2023-03-17T14:21:32.648Z,98921.84
2023-03-17T14:24:04.497Z,98917.00
2023-03-17T14:26:33.515Z,98920.16
2023-03-17T14:29:02.694Z,98919.09
2023-03-17T14:31:31.117Z,98928.91
2023-03-17T14:34:01.287Z,98925.59
2023-03-17T14:36:30.109Z,98937.06
2023-03-17T14:38:58.399Z,98938.22
2023-03-17T14:41:29.385Z,98930.69
2023-03-17T14:44:00.140Z,98917.44
2023-03-17T14:46:32.070Z,98925.25
2023-03-17T14:49:02.707Z,98921.19
2023-03-17T14:51:36.073Z,98921.19
2023-03-17T14:54:11.418Z,98910.66
2023-03-17T14:56:44.265Z,98916.03
2023-03-17T14:59:20.106Z,98909.66
2023-03-17T15:01:49.500Z,98910.66
2023-03-17T15:04:20.038Z,98918.72
2023-03-17T15:06:53.912Z,98919.44
2023-03-17T15:09:27.667Z,98913.53
2023-03-17T15:12:07.646Z,98927.56
2023-03-17T15:14:38.903Z,98927.97
2023-03-17T15:17:15.479Z,98928.19
2023-03-17T15:19:46.605Z,98929.75
2023-03-17T15:22:26.321Z,98919.97
2023-03-17T15:25:01.311Z,98926.31
2023-03-17T15:27:32.505Z,98936.16
2023-03-17T15:30:00.564Z,98932.91
2023-03-17T15:32:28.702Z,98933.84
2023-03-17T15:34:57.971Z,98931.69
2023-03-17T15:37:27.377Z,98931.47
2023-03-17T15:39:56.645Z,98925.50
2023-03-17T15:42:26.578Z,98927.00
2023-03-17T15:44:56.466Z,98928.41
2023-03-17T15:47:28.265Z,98920.88
2023-03-17T15:50:00.330Z,98907.41
2023-03-17T15:52:29.159Z,98901.09
2023-03-17T15:54:59.085Z,98900.22
2023-03-17T15:57:28.118Z,98899.63
2023-03-17T15:59:57.466Z,98907.16
2023-03-17T16:02:28.964Z,98908.91
2023-03-17T16:04:57.564Z,98911.06
2023-03-17T16:07:26.223Z,98911.41
2023-03-17T16:09:54.245Z,98904.25
2023-03-17T16:12:22.209Z,98917.88
2023-03-17T16:14:50.365Z,98922.06
2023-03-17T16:17:26.984Z,98902.25
2023-03-17T16:19:55.942Z,98916.72
2023-03-17T16:22:39.409Z,98922.91
2023-03-17T16:25:20.022Z,98925.16
2023-03-17T16:27:48.289Z,98924.06
2023-03-17T16:30:18.370Z,98932.91
2023-03-17T16:32:48.105Z,98942.47
2023-03-17T16:35:17.883Z,98933.25
2023-03-17T16:37:46.294Z,98944.22
2023-03-17T16:40:19.784Z,98944.47
2023-03-17T16:42:48.380Z,98947.66
2023-03-17T16:45:21.921Z,98945.59
2023-03-17T16:47:51.299Z,98958.38
2023-03-17T16:50:21.553Z,98955.34
2023-03-17T16:52:49.755Z,98964.06
2023-03-17T16:55:19.390Z,98967.00
2023-03-17T16:57:49.295Z,98973.00
2023-03-17T17:00:21.785Z,98966.16
2023-03-17T17:02:51.342Z,98965.00
2023-03-17T17:05:21.571Z,98980.19
2023-03-17T17:07:50.241Z,98977.13
2023-03-17T17:10:20.472Z,98977.84
2023-03-17T17:12:49.153Z,98972.94
2023-03-17T17:15:18.475Z,98968.91
2023-03-17T17:17:50.588Z,98960.84
2023-03-17T17:20:23.250Z,98972.94
2023-03-17T17:22:54.755Z,98980.75
2023-03-17T17:25:22.790Z,98979.78
2023-03-17T17:27:51.247Z,98984.78
2023-03-17T17:30:22.575Z,98984.75
2023-03-17T17:32:50.602Z,98985.75
2023-03-17T17:35:20.166Z,98984.84
2023-03-17T17:37:48.227Z,98993.34
2023-03-17T17:40:18.902Z,98987.72
2023-03-17T17:42:47.377Z,98984.72
2023-03-17T17:45:16.865Z,98983.56
2023-03-17T17:47:45.709Z,98988.97
2023-03-17T17:50:20.595Z,98990.84
2023-03-17T17:52:48.590Z,98994.16
2023-03-17T17:55:16.636Z,98992.19
2023-03-17T17:57:44.727Z,98996.25
2023-03-17T18:00:16.825Z,98988.94
2023-03-17T18:02:44.946Z,98994.94
2023-03-17T18:05:13.636Z,98988.09
2023-03-17T18:07:42.947Z,98998.91
2023-03-17T18:10:17.681Z,98999.25
2023-03-17T18:12:45.604Z,98998.94
2023-03-17T18:15:13.915Z,99005.22
2023-03-17T18:17:43.148Z,99006.09
2023-03-17T18:20:13.673Z,99010.38
2023-03-17T18:22:43.246Z,99020.78
2023-03-17T18:25:14.439Z,99031.63
2023-03-17T18:27:42.978Z,99029.09
2023-03-17T18:30:14.408Z,99034.84
2023-03-17T18:32:44.038Z,99039.16
2023-03-17T18:35:17.224Z,99041.97
2023-03-17T18:37:46.657Z,99047.38
2023-03-17T18:40:32.150Z,99051.91
2023-03-17T18:43:00.179Z,99052.94
2023-03-17T18:45:28.978Z,99052.56
2023-03-17T18:47:56.970Z,99055.19
2023-03-17T18:50:24.911Z,99050.28
2023-03-17T18:52:55.872Z,99049.97
2023-03-17T18:55:23.900Z,99047.84
2023-03-17T18:57:51.976Z,99056.16
2023-03-17T19:00:20.504Z,99053.88
2023-03-17T19:02:48.522Z,99056.38
2023-03-17T19:05:16.577Z,99050.69
2023-03-17T19:07:44.586Z,99052.38
2023-03-17T19:10:15.254Z,99057.31
2023-03-17T19:12:44.031Z,99061.66
2023-03-17T19:15:13.347Z,99065.56
2023-03-17T19:17:42.509Z,99078.41
2023-03-17T19:20:12.366Z,99077.13
2023-03-17T19:22:40.462Z,99078.41
2023-03-17T19:25:09.347Z,99083.66
2023-03-17T19:27:38.950Z,99092.56
2023-03-17T19:30:08.813Z,99093.19
2023-03-17T19:32:36.907Z,99089.03
2023-03-17T19:35:05.832Z,99095.25
2023-03-17T19:37:33.756Z,99097.53
2023-03-17T19:40:01.797Z,99102.91
2023-03-17T19:42:29.817Z,99105.19
2023-03-17T19:44:59.203Z,99104.59
2023-03-17T19:47:27.727Z,99103.34
2023-03-17T19:49:56.368Z,99101.69
2023-03-17T19:52:24.483Z,99097.13
2023-03-17T19:54:52.496Z,99102.97
2023-03-17T19:57:21.023Z,99109.38
2023-03-17T19:59:49.066Z,99112.25
2023-03-17T20:02:18.524Z,99107.50
2023-03-17T20:04:46.516Z,99109.97
2023-03-17T20:07:14.557Z,99116.81
2023-03-17T20:09:44.751Z,99108.13
2023-03-17T20:12:12.822Z,99109.56
2023-03-17T20:14:41.269Z,99109.97
2023-03-17T20:17:09.342Z,99112.47
2023-03-17T20:19:39.512Z,99108.78
2023-03-17T20:22:07.939Z,99107.50
2023-03-17T20:24:36.406Z,99107.75
2023-03-17T20:27:07.098Z,99103.19
2023-03-17T20:29:35.211Z,99096.13
2023-03-17T20:32:03.571Z,99093.44
2023-03-17T20:34:31.851Z,99104.63
2023-03-17T20:37:01.620Z,99106.69
2023-03-17T20:39:30.328Z,99098.81
2023-03-17T20:41:58.284Z,99105.44
2023-03-17T20:44:26.287Z,99097.56
2023-03-17T20:46:54.942Z,99114.13
2023-03-17T20:49:23.602Z,99103.56
2023-03-17T20:51:51.722Z,99106.25
2023-03-17T20:54:21.197Z,99096.66
2023-03-17T20:56:52.505Z,99098.69
2023-03-17T20:59:20.839Z,99104.94
2023-03-17T21:01:50.053Z,99098.22
2023-03-17T21:04:20.935Z,99100.28
2023-03-17T21:06:49.833Z,99098.84
2023-03-17T21:09:17.792Z,99102.19
2023-03-17T21:11:49.080Z,99097.44
2023-03-17T21:14:17.443Z,99097.44
2023-03-17T21:16:47.267Z,99102.53
2023-03-17T21:19:16.213Z,99102.38
2023-03-17T21:21:44.692Z,99108.41
2023-03-17T21:24:25.525Z,99107.81
2023-03-17T21:26:55.150Z,99109.38
2023-03-17T21:29:23.432Z,99110.25
2023-03-17T21:31:51.591Z,99117.53
2023-03-17T21:34:20.019Z,99114.22
2023-03-17T21:36:48.045Z,99105.09
2023-03-17T21:39:16.375Z,99105.31
2023-03-17T21:41:46.213Z,99100.22
2023-03-17T21:44:17.862Z,99103.28
2023-03-17T21:46:46.325Z,99100.22
2023-03-17T21:49:16.187Z,99110.00
2023-03-17T21:51:45.352Z,99098.91
2023-03-17T21:54:14.278Z,99110.06
2023-03-17T21:56:42.765Z,99106.41
2023-03-17T21:59:11.137Z,99103.13
2023-03-17T22:01:41.792Z,99102.09
2023-03-17T22:04:10.786Z,99110.59
2023-03-17T22:06:38.766Z,99113.88
2023-03-17T22:09:08.693Z,99115.72
2023-03-17T22:11:36.653Z,99120.50
2023-03-17T22:14:04.881Z,99126.88
2023-03-17T22:16:33.187Z,99134.75
2023-03-17T22:19:02.573Z,99138.69
2023-03-17T22:21:31.913Z,99140.97
2023-03-17T22:23:59.924Z,99139.94
2023-03-17T22:26:28.566Z,99158.91
2023-03-17T22:28:56.655Z,99167.06
2023-03-17T22:31:26.516Z,99166.31
2023-03-17T22:33:56.780Z,99200.13
2023-03-17T22:36:27.200Z,99209.69
2023-03-17T22:38:56.208Z,99212.69
2023-03-17T22:41:26.267Z,99218.34
2023-03-17T22:43:54.940Z,99208.78
2023-03-17T22:46:23.460Z,99215.09
2023-03-17T22:48:52.647Z,99203.59
2023-03-17T22:51:22.649Z,99213.84
2023-03-17T22:53:52.953Z,99212.63
2023-03-17T22:56:21.070Z,99208.41
2023-03-17T22:58:49.872Z,99207.00
2023-03-17T23:01:19.042Z,99200.00
2023-03-17T23:03:47.608Z,99211.09
2023-03-17T23:06:16.227Z,99215.06
2023-03-17T23:08:46.098Z,99225.41
2023-03-17T23:11:18.375Z,99224.38
2023-03-17T23:13:47.459Z,99208.63
2023-03-17T23:16:16.407Z,99245.22
2023-03-17T23:18:47.888Z,99231.22
2023-03-17T23:21:21.427Z,99251.16
2023-03-17T23:23:49.562Z,99244.25
2023-03-17T23:26:19.530Z,99248.97
2023-03-17T23:28:47.724Z,99243.59
2023-03-17T23:31:16.822Z,99253.78
2023-03-17T23:33:44.886Z,99261.13
2023-03-17T23:36:14.186Z,99259.91
2023-03-17T23:38:42.753Z,99262.78
2023-03-17T23:41:11.270Z,99263.03
2023-03-17T23:43:41.061Z,99268.41
2023-03-17T23:46:09.579Z,99265.63
2023-03-17T23:48:40.354Z,99264.31
2023-03-17T23:51:12.312Z,99283.44
2023-03-17T23:53:41.704Z,99275.97
2023-03-17T23:56:11.251Z,99283.00
2023-03-17T23:58:44.427Z,99292.31
